createdAt,value
2023-04-08T00:02:27.896Z,49.79
2023-04-08T00:04:56.131Z,49.69
2023-04-08T00:07:24.028Z,49.80
2023-04-08T00:09:51.890Z,49.92
2023-04-08T00:12:19.749Z,50.31
2023-04-08T00:14:47.614Z,50.77
2023-04-08T00:17:15.616Z,50.49
2023-04-08T00:19:45.092Z,50.89
2023-04-08T00:22:12.942Z,50.29
2023-04-08T00:24:40.886Z,50.35
2023-04-08T00:27:08.690Z,50.59
2023-04-08T00:29:36.546Z,50.86
2023-04-08T00:32:05.111Z,51.67
2023-04-08T00:34:33.023Z,50.89
2023-04-08T00:37:02.520Z,52.33
2023-04-08T00:39:30.665Z,52.48
2023-04-08T00:41:58.604Z,52.76
2023-04-08T00:44:26.375Z,52.30
2023-04-08T00:46:54.232Z,51.02
2023-04-08T00:49:22.097Z,51.69
2023-04-08T00:51:49.866Z,51.83
2023-04-08T00:54:18.935Z,51.91
2023-04-08T00:56:46.836Z,51.92
2023-04-08T00:59:15.374Z,51.67
2023-04-08T01:01:49.073Z,51.23
2023-04-08T01:04:24.448Z,51.94
2023-04-08T01:06:58.415Z,52.11
2023-04-08T01:09:33.429Z,52.00
2023-04-08T01:12:05.231Z,52.49
2023-04-08T01:14:36.272Z,52.12
2023-04-08T01:17:05.715Z,51.80
2023-04-08T01:19:38.653Z,51.91
2023-04-08T01:22:17.518Z,52.15
2023-04-08T01:24:48.784Z,52.47
2023-04-08T01:27:20.173Z,51.57
2023-04-08T01:29:50.093Z,51.52
2023-04-08T01:32:18.631Z,52.40
2023-04-08T01:34:47.014Z,52.25
2023-04-08T01:37:16.430Z,52.50
2023-04-08T01:39:45.121Z,52.60
2023-04-08T01:42:14.868Z,52.34
2023-04-08T01:44:47.287Z,52.57
2023-04-08T01:47:16.988Z,52.46
2023-04-08T01:49:46.104Z,52.42
2023-04-08T01:52:16.033Z,52.21
2023-04-08T01:54:46.011Z,52.47
2023-04-08T01:57:18.715Z,52.12
2023-04-08T01:59:51.669Z,52.38
2023-04-08T02:02:21.120Z,52.94
2023-04-08T02:04:49.656Z,52.81
2023-04-08T02:07:18.872Z,52.59
2023-04-08T02:09:46.589Z,52.55
2023-04-08T02:12:14.725Z,52.44
2023-04-08T02:14:42.663Z,52.62
2023-04-08T02:17:14.500Z,53.28
2023-04-08T02:19:47.836Z,53.01
2023-04-08T02:22:24.327Z,52.88
2023-04-08T02:24:53.150Z,52.28
2023-04-08T02:27:22.035Z,52.65
2023-04-08T02:29:52.042Z,53.35
2023-04-08T02:32:24.890Z,53.63
2023-04-08T02:34:53.642Z,53.42
2023-04-08T02:37:21.526Z,53.16
2023-04-08T02:39:49.263Z,52.47
2023-04-08T02:42:17.149Z,52.15
2023-04-08T02:44:46.188Z,52.62
2023-04-08T02:47:14.089Z,52.66
2023-04-08T02:49:43.233Z,52.93
2023-04-08T02:52:11.067Z,52.98
2023-04-08T02:54:38.905Z,53.35
2023-04-08T02:57:06.707Z,52.74
2023-04-08T02:59:37.858Z,53.20
2023-04-08T03:02:05.658Z,53.28
2023-04-08T03:04:33.444Z,53.28
2023-04-08T03:07:02.693Z,53.51
2023-04-08T03:09:30.498Z,53.52
2023-04-08T03:11:58.276Z,53.40
2023-04-08T03:14:26.188Z,53.63
2023-04-08T03:16:54.018Z,53.42
2023-04-08T03:19:21.863Z,53.26
2023-04-08T03:21:49.733Z,53.41
2023-04-08T03:24:18.815Z,52.74
2023-04-08T03:26:46.776Z,53.45
2023-04-08T03:29:14.767Z,53.65
2023-04-08T03:31:42.697Z,53.64
2023-04-08T03:34:10.586Z,54.34
2023-04-08T03:36:38.369Z,54.55
2023-04-08T03:39:06.465Z,54.24
2023-04-08T03:41:35.865Z,54.68
2023-04-08T03:44:03.941Z,54.46
2023-04-08T03:46:31.810Z,54.05
2023-04-08T03:48:59.644Z,54.78
2023-04-08T03:51:28.574Z,54.83
2023-04-08T03:53:56.541Z,54.00
2023-04-08T03:56:25.122Z,54.25
2023-04-08T03:58:54.458Z,54.25
2023-04-08T04:01:22.312Z,54.48
2023-04-08T04:03:50.375Z,54.67
2023-04-08T04:06:18.408Z,54.69
2023-04-08T04:08:46.512Z,54.56
2023-04-08T04:11:14.343Z,54.76
2023-04-08T04:13:42.410Z,54.78
2023-04-08T04:16:11.754Z,55.05
2023-04-08T04:18:39.601Z,54.60
2023-04-08T04:21:08.069Z,54.51
2023-04-08T04:23:36.011Z,55.12
2023-04-08T04:26:08.782Z,54.37
2023-04-08T04:28:36.606Z,54.74
2023-04-08T04:31:05.184Z,54.91
2023-04-08T04:33:34.336Z,54.93
2023-04-08T04:36:02.111Z,55.86
2023-04-08T04:38:29.973Z,55.10
2023-04-08T04:40:58.998Z,54.89
2023-04-08T04:43:26.826Z,55.18
2023-04-08T04:45:54.622Z,54.67
2023-04-08T04:48:23.188Z,55.06
2023-04-08T04:50:57.574Z,54.41
2023-04-08T04:53:25.964Z,54.86
2023-04-08T04:55:54.429Z,54.68
2023-04-08T04:58:22.462Z,54.86
2023-04-08T05:00:50.573Z,55.31
2023-04-08T05:03:18.680Z,54.75
2023-04-08T05:05:46.697Z,54.89
2023-04-08T05:08:16.311Z,55.00
2023-04-08T05:10:44.028Z,54.85
2023-04-08T05:13:11.800Z,54.78
2023-04-08T05:15:40.019Z,55.10
2023-04-08T05:18:08.282Z,55.03
2023-04-08T05:20:36.692Z,55.11
2023-04-08T05:23:04.702Z,55.27
2023-04-08T05:25:34.303Z,55.19
2023-04-08T05:28:02.341Z,55.38
2023-04-08T05:30:30.587Z,56.16
2023-04-08T05:33:00.312Z,55.79
2023-04-08T05:35:28.720Z,55.59
2023-04-08T05:37:56.808Z,56.14
2023-04-08T05:40:24.852Z,55.90
2023-04-08T05:42:54.010Z,55.51
2023-04-08T05:45:22.014Z,55.80
2023-04-08T05:47:49.958Z,55.61
2023-04-08T05:50:18.119Z,56.17
2023-04-08T05:52:46.174Z,56.09
2023-04-08T05:55:15.684Z,56.08
2023-04-08T05:57:43.606Z,56.32
2023-04-08T06:00:13.628Z,55.79
2023-04-08T06:02:41.679Z,56.64
2023-04-08T06:05:10.749Z,56.34
2023-04-08T06:07:38.516Z,56.28
2023-04-08T06:10:07.297Z,56.40
2023-04-08T06:12:37.150Z,55.69
2023-04-08T06:15:05.572Z,56.21
2023-04-08T06:17:37.378Z,56.28
2023-04-08T06:20:07.212Z,56.23
2023-04-08T06:22:35.056Z,56.10
2023-04-08T06:25:03.231Z,56.33
2023-04-08T06:27:31.138Z,56.06
2023-04-08T06:29:59.216Z,56.77
2023-04-08T06:32:27.007Z,56.86
2023-04-08T06:34:56.947Z,57.17
2023-04-08T06:37:25.227Z,57.06
2023-04-08T06:39:53.049Z,56.58
2023-04-08T06:42:22.590Z,56.92
2023-04-08T06:45:09.846Z,56.31
2023-04-08T06:47:37.815Z,56.30
2023-04-08T06:50:08.185Z,56.24
2023-04-08T06:52:36.136Z,56.16
2023-04-08T06:55:04.470Z,56.25
2023-04-08T06:57:32.959Z,56.21
2023-04-08T07:00:01.181Z,56.02
2023-04-08T07:02:29.292Z,56.42
2023-04-08T07:04:57.935Z,57.36
2023-04-08T07:07:27.239Z,57.90
2023-04-08T07:09:55.009Z,57.00
2023-04-08T07:12:22.907Z,56.79
2023-04-08T07:14:50.713Z,56.51
2023-04-08T07:17:18.453Z,55.85
2023-04-08T07:19:47.180Z,55.98
2023-04-08T07:22:16.171Z,56.08
2023-04-08T07:24:49.853Z,55.62
2023-04-08T07:27:17.714Z,56.11
2023-04-08T07:29:45.862Z,56.12
2023-04-08T07:32:13.658Z,56.19
2023-04-08T07:34:42.047Z,56.82
2023-04-08T07:37:10.122Z,57.13
2023-04-08T07:39:37.825Z,57.19
2023-04-08T07:42:07.040Z,56.61
2023-04-08T07:44:35.116Z,56.82
2023-04-08T07:47:03.253Z,57.36
2023-04-08T07:49:31.858Z,57.48
2023-04-08T07:52:00.815Z,57.42
2023-04-08T07:54:29.492Z,56.96
2023-04-08T07:56:59.933Z,56.68
2023-04-08T07:59:30.315Z,56.84
2023-04-08T08:01:58.982Z,56.54
2023-04-08T08:04:27.685Z,56.74
2023-04-08T08:06:55.803Z,56.57
2023-04-08T08:09:24.117Z,57.52
2023-04-08T08:11:53.345Z,57.04
2023-04-08T08:14:22.012Z,57.71
2023-04-08T08:16:53.379Z,57.68
2023-04-08T08:19:22.555Z,57.57
2023-04-08T08:21:52.446Z,57.44
2023-04-08T08:24:20.731Z,57.64
2023-04-08T08:26:49.999Z,57.41
2023-04-08T08:29:18.621Z,56.75
2023-04-08T08:31:48.988Z,57.19
2023-04-08T08:34:19.881Z,57.60
2023-04-08T08:36:48.547Z,57.65
2023-04-08T08:39:17.989Z,57.46
2023-04-08T08:41:47.236Z,57.39
2023-04-08T08:44:16.167Z,57.11
2023-04-08T08:46:46.239Z,57.79
2023-04-08T08:49:17.035Z,57.64
2023-04-08T08:51:48.274Z,57.88
2023-04-08T08:54:17.464Z,57.44
2023-04-08T08:56:47.037Z,57.82
2023-04-08T08:59:15.447Z,58.08
2023-04-08T09:01:45.041Z,57.89
2023-04-08T09:04:17.315Z,58.23
2023-04-08T09:06:49.540Z,58.36
2023-04-08T09:09:19.552Z,58.12
2023-04-08T09:11:48.979Z,58.28
2023-04-08T09:14:24.471Z,57.87
2023-04-08T09:16:55.310Z,57.73
2023-04-08T09:19:23.916Z,57.95
2023-04-08T09:22:08.153Z,58.92
2023-04-08T09:24:38.506Z,58.57
2023-04-08T09:27:07.032Z,58.49
2023-04-08T09:29:38.289Z,58.26
2023-04-08T09:32:07.997Z,58.72
2023-04-08T09:34:36.727Z,58.69
2023-04-08T09:37:05.541Z,58.93
2023-04-08T09:39:33.851Z,58.64
2023-04-08T09:42:12.846Z,59.02
2023-04-08T09:44:43.722Z,59.01
2023-04-08T09:47:27.988Z,59.40
2023-04-08T09:49:59.587Z,59.09
2023-04-08T09:52:35.642Z,58.59
2023-04-08T09:55:05.544Z,58.99
2023-04-08T09:57:42.530Z,59.41
2023-04-08T10:00:15.305Z,59.17
2023-04-08T10:02:54.292Z,58.99
2023-04-08T10:05:24.547Z,59.61
2023-04-08T10:07:52.874Z,60.11
2023-04-08T10:10:21.917Z,60.07
2023-04-08T10:12:51.698Z,59.20
2023-04-08T10:15:27.971Z,59.62
2023-04-08T10:17:56.979Z,59.46
2023-04-08T10:20:45.799Z,59.36
2023-04-08T10:23:15.354Z,59.69
2023-04-08T10:25:45.214Z,60.42
2023-04-08T10:28:27.178Z,59.62
2023-04-08T10:30:56.654Z,59.53
2023-04-08T10:33:32.724Z,59.22
2023-04-08T10:36:02.935Z,59.83
2023-04-08T10:38:30.993Z,59.93
2023-04-08T10:40:58.637Z,59.69
2023-04-08T10:43:28.197Z,59.94
2023-04-08T10:45:56.431Z,59.97
2023-04-08T10:48:25.601Z,59.78
2023-04-08T10:50:54.069Z,59.60
2023-04-08T10:53:27.026Z,59.70
2023-04-08T10:55:54.968Z,60.03
2023-04-08T10:58:23.008Z,59.45
2023-04-08T11:00:52.675Z,59.63
2023-04-08T11:03:20.831Z,59.68
2023-04-08T11:05:51.608Z,59.00
2023-04-08T11:08:20.903Z,59.18
2023-04-08T11:10:49.769Z,60.17
2023-04-08T11:13:18.834Z,60.14
2023-04-08T11:15:46.759Z,60.28
2023-04-08T11:18:16.693Z,60.55
2023-04-08T11:20:45.050Z,60.89
2023-04-08T11:23:14.852Z,60.91
2023-04-08T11:25:44.656Z,61.21
2023-04-08T11:28:13.051Z,61.20
2023-04-08T11:30:42.192Z,61.36
2023-04-08T11:33:10.305Z,61.35
2023-04-08T11:35:43.444Z,61.06
2023-04-08T11:38:12.553Z,61.39
2023-04-08T11:40:40.290Z,61.67
2023-04-08T11:43:11.774Z,60.90
2023-04-08T11:45:40.316Z,60.65
2023-04-08T11:48:11.812Z,60.77
2023-04-08T11:50:40.484Z,60.59
2023-04-08T11:53:20.537Z,61.15
2023-04-08T11:55:49.768Z,60.81
2023-04-08T11:58:18.083Z,60.29
2023-04-08T12:00:46.807Z,59.94
2023-04-08T12:03:14.920Z,60.21
2023-04-08T12:05:44.076Z,60.44
2023-04-08T12:08:12.202Z,60.44
2023-04-08T12:10:41.839Z,60.62
2023-04-08T12:13:09.521Z,60.86
2023-04-08T12:15:37.843Z,60.68
2023-04-08T12:18:06.329Z,60.81
2023-04-08T12:20:34.497Z,61.14
2023-04-08T12:23:02.544Z,60.48
2023-04-08T12:25:31.404Z,60.31
2023-04-08T12:28:01.080Z,60.42
2023-04-08T12:30:29.458Z,59.79
2023-04-08T12:32:58.037Z,60.08
2023-04-08T12:35:26.398Z,59.99
2023-04-08T12:37:55.568Z,60.13
2023-04-08T12:40:23.461Z,59.93
2023-04-08T12:42:51.291Z,59.97
2023-04-08T12:45:20.670Z,59.67
2023-04-08T12:47:48.586Z,59.36
2023-04-08T12:50:17.141Z,59.23
2023-04-08T12:52:44.976Z,59.22
2023-04-08T12:55:12.953Z,59.25
2023-04-08T12:57:41.083Z,59.02
2023-04-08T13:00:11.496Z,58.79
2023-04-08T13:02:42.240Z,59.03
2023-04-08T13:05:10.711Z,58.89
2023-04-08T13:07:38.593Z,58.55
2023-04-08T13:10:07.973Z,58.17
2023-04-08T13:12:36.045Z,58.63
2023-04-08T13:15:05.241Z,58.62
2023-04-08T13:17:33.693Z,58.59
2023-04-08T13:20:03.852Z,58.95
2023-04-08T13:22:33.692Z,57.80
2023-04-08T13:25:02.122Z,57.43
2023-04-08T13:27:30.421Z,57.39
2023-04-08T13:29:58.263Z,56.97
2023-04-08T13:32:26.400Z,57.38
2023-04-08T13:34:54.580Z,57.15
2023-04-08T13:37:23.890Z,57.39
2023-04-08T13:39:51.779Z,57.24
2023-04-08T13:42:19.394Z,57.19
2023-04-08T13:44:46.948Z,56.90
2023-04-08T13:47:14.726Z,57.20
2023-04-08T13:49:42.404Z,57.38
2023-04-08T13:52:10.230Z,56.83
2023-04-08T13:54:39.339Z,57.25
2023-04-08T13:57:08.075Z,57.20
2023-04-08T13:59:35.823Z,56.62
2023-04-08T14:02:04.718Z,56.63
2023-04-08T14:04:33.600Z,56.61
2023-04-08T14:07:01.433Z,56.18
2023-04-08T14:09:29.593Z,55.62
2023-04-08T14:11:59.078Z,55.80
2023-04-08T14:14:26.802Z,55.56
2023-04-08T14:16:55.090Z,55.48
2023-04-08T14:19:23.170Z,55.36
2023-04-08T14:21:51.308Z,54.42
2023-04-08T14:24:19.267Z,54.46
2023-04-08T14:26:47.424Z,53.50
2023-04-08T14:29:16.727Z,53.86
2023-04-08T14:31:44.506Z,54.05
2023-04-08T14:34:12.321Z,54.11
2023-04-08T14:36:40.467Z,54.77
2023-04-08T14:39:08.368Z,53.41
2023-04-08T14:41:36.216Z,52.31
2023-04-08T14:44:05.550Z,52.68
2023-04-08T14:46:34.850Z,53.09
2023-04-08T14:49:02.673Z,54.10
2023-04-08T14:51:31.836Z,53.93
2023-04-08T14:53:59.805Z,53.33
2023-04-08T14:56:27.653Z,52.73
2023-04-08T14:58:55.729Z,52.42
2023-04-08T15:01:24.065Z,52.32
2023-04-08T15:03:53.388Z,52.01
2023-04-08T15:06:21.752Z,52.36
2023-04-08T15:08:49.936Z,50.76
2023-04-08T15:11:19.593Z,50.39
2023-04-08T15:13:47.408Z,51.04
2023-04-08T15:16:15.747Z,51.64
2023-04-08T15:18:43.588Z,51.17
2023-04-08T15:21:12.736Z,50.63
2023-04-08T15:23:42.017Z,50.86
2023-04-08T15:26:11.420Z,50.38
2023-04-08T15:28:40.497Z,50.87
2023-04-08T15:31:08.879Z,49.62
2023-04-08T15:33:41.235Z,49.12
2023-04-08T15:36:09.061Z,49.35
2023-04-08T15:38:39.956Z,49.36
2023-04-08T15:41:07.747Z,49.83
2023-04-08T15:43:35.932Z,48.56
2023-04-08T15:46:04.442Z,49.48
2023-04-08T15:48:32.727Z,48.89
2023-04-08T15:51:00.447Z,49.35
2023-04-08T15:53:28.419Z,48.70
2023-04-08T15:55:57.965Z,48.58
2023-04-08T15:58:25.936Z,48.42
2023-04-08T16:00:55.763Z,47.85
2023-04-08T16:03:23.748Z,48.34
2023-04-08T16:05:52.124Z,49.05
2023-04-08T16:08:20.175Z,49.08
2023-04-08T16:10:48.065Z,49.20
2023-04-08T16:13:17.410Z,49.25
2023-04-08T16:15:45.631Z,49.24
2023-04-08T16:18:13.903Z,49.28
2023-04-08T16:20:41.966Z,49.12
2023-04-08T16:23:10.230Z,49.16
2023-04-08T16:25:38.117Z,49.60
2023-04-08T16:28:06.502Z,50.01
2023-04-08T16:30:37.555Z,49.83
2023-04-08T16:33:06.092Z,50.22
2023-04-08T16:35:34.114Z,50.60
2023-04-08T16:38:01.854Z,51.24
2023-04-08T16:40:33.026Z,50.89
2023-04-08T16:43:01.080Z,51.62
2023-04-08T16:45:30.496Z,51.93
2023-04-08T16:48:00.636Z,51.96
2023-04-08T16:50:28.965Z,52.00
2023-04-08T16:52:57.112Z,52.60
2023-04-08T16:55:24.958Z,52.69
2023-04-08T16:57:52.916Z,52.54
2023-04-08T17:00:22.425Z,52.58
2023-04-08T17:02:50.657Z,52.49
2023-04-08T17:05:20.361Z,52.69
2023-04-08T17:07:48.112Z,52.99
2023-04-08T17:10:16.402Z,53.14
2023-04-08T17:12:44.243Z,52.84
2023-04-08T17:15:12.640Z,53.47
2023-04-08T17:17:40.447Z,53.52
2023-04-08T17:20:09.259Z,53.70
2023-04-08T17:22:38.446Z,53.65
2023-04-08T17:25:07.442Z,53.33
2023-04-08T17:27:35.473Z,53.43
2023-04-08T17:30:03.660Z,53.46
2023-04-08T17:32:32.183Z,54.18
2023-04-08T17:35:00.087Z,55.24
2023-04-08T17:37:28.040Z,54.84
2023-04-08T17:39:57.403Z,55.33
2023-04-08T17:42:25.107Z,55.50
2023-04-08T17:44:53.008Z,55.70
2023-04-08T17:47:21.117Z,55.77
2023-04-08T17:49:48.863Z,56.31
2023-04-08T17:52:16.570Z,55.86
2023-04-08T17:54:44.253Z,55.83
2023-04-08T17:57:14.276Z,56.24
2023-04-08T17:59:42.053Z,56.13
2023-04-08T18:02:10.038Z,56.28
2023-04-08T18:04:38.236Z,56.00
2023-04-08T18:07:06.168Z,56.02
2023-04-08T18:09:34.085Z,55.67
2023-04-08T18:12:01.911Z,55.51
2023-04-08T18:14:31.373Z,56.13
2023-04-08T18:16:59.208Z,55.89
2023-04-08T18:19:27.047Z,55.78
2023-04-08T18:21:55.466Z,56.72
2023-04-08T18:24:23.268Z,56.19
2023-04-08T18:26:57.948Z,56.21
2023-04-08T18:29:32.879Z,56.68
2023-04-08T18:32:00.852Z,56.16
2023-04-08T18:34:28.747Z,56.42
2023-04-08T18:36:56.799Z,56.76
2023-04-08T18:39:24.541Z,57.01
2023-04-08T18:41:52.241Z,57.07
2023-04-08T18:44:20.174Z,56.98
2023-04-08T18:46:49.418Z,56.92
2023-04-08T18:49:17.150Z,56.67
2023-04-08T18:51:59.143Z,57.32
2023-04-08T18:54:30.689Z,57.09
2023-04-08T18:56:58.689Z,57.34
2023-04-08T18:59:28.320Z,57.21
2023-04-08T19:01:58.016Z,57.28
2023-04-08T19:04:26.311Z,57.40
2023-04-08T19:06:54.407Z,57.21
2023-04-08T19:09:22.331Z,57.31
2023-04-08T19:11:50.196Z,57.65
2023-04-08T19:14:18.364Z,58.08
2023-04-08T19:16:46.151Z,58.14
2023-04-08T19:19:16.193Z,58.01
2023-04-08T19:21:44.395Z,57.76
2023-04-08T19:24:12.091Z,57.84
2023-04-08T19:26:39.876Z,57.93
2023-04-08T19:29:09.325Z,58.08
2023-04-08T19:31:37.776Z,57.67
2023-04-08T19:34:05.766Z,57.94
2023-04-08T19:36:34.943Z,57.34
2023-04-08T19:39:03.622Z,57.83
2023-04-08T19:41:31.617Z,57.63
2023-04-08T19:43:59.411Z,57.53
2023-04-08T19:46:29.198Z,58.28
2023-04-08T19:48:58.973Z,58.09
2023-04-08T19:51:27.446Z,58.10
2023-04-08T19:53:56.665Z,58.13
2023-04-08T19:56:24.473Z,58.54
2023-04-08T19:58:52.768Z,58.02
2023-04-08T20:01:21.236Z,57.78
2023-04-08T20:03:50.388Z,57.95
2023-04-08T20:06:18.619Z,58.04
2023-04-08T20:08:46.783Z,58.33
2023-04-08T20:11:16.005Z,58.30
2023-04-08T20:13:43.964Z,58.06
2023-04-08T20:16:11.941Z,57.95
2023-04-08T20:18:39.797Z,58.00
2023-04-08T20:21:10.121Z,58.11
2023-04-08T20:23:40.460Z,58.01
2023-04-08T20:26:08.544Z,57.88
2023-04-08T20:28:37.709Z,58.08
2023-04-08T20:31:05.767Z,58.16
2023-04-08T20:33:33.627Z,57.70
2023-04-08T20:36:01.635Z,57.91
2023-04-08T20:38:29.423Z,57.46
2023-04-08T20:40:57.388Z,58.09
2023-04-08T20:43:25.236Z,57.79
2023-04-08T20:45:54.571Z,57.78
2023-04-08T20:48:22.428Z,58.12
2023-04-08T20:50:50.703Z,58.22
2023-04-08T20:53:19.564Z,58.08
2023-04-08T20:55:47.434Z,57.74
2023-04-08T20:58:15.277Z,58.10
2023-04-08T21:00:43.050Z,58.00
2023-04-08T21:03:13.007Z,58.19
2023-04-08T21:05:41.156Z,57.36
2023-04-08T21:08:08.948Z,57.53
2023-04-08T21:10:36.761Z,57.89
2023-04-08T21:13:04.587Z,57.81
2023-04-08T21:15:32.626Z,57.96
2023-04-08T21:18:00.415Z,57.83
2023-04-08T21:20:29.903Z,58.02
2023-04-08T21:22:59.160Z,57.58
2023-04-08T21:25:27.509Z,57.53
2023-04-08T21:27:55.559Z,57.63
2023-04-08T21:30:24.083Z,57.06
2023-04-08T21:32:52.581Z,57.20
2023-04-08T21:35:20.613Z,57.43
2023-04-08T21:37:49.852Z,57.30
2023-04-08T21:40:18.160Z,57.23
2023-04-08T21:42:46.568Z,56.94
2023-04-08T21:45:15.400Z,56.87
2023-04-08T21:47:43.261Z,56.79
2023-04-08T21:50:11.861Z,56.94
2023-04-08T21:52:41.590Z,56.34
2023-04-08T21:55:12.460Z,56.62
2023-04-08T21:57:41.484Z,57.09
2023-04-08T22:00:13.390Z,56.68
2023-04-08T22:02:45.273Z,56.50
2023-04-08T22:05:13.496Z,56.54
2023-04-08T22:07:41.608Z,56.44
2023-04-08T22:10:10.271Z,56.53
2023-04-08T22:12:39.543Z,56.34
2023-04-08T22:15:09.439Z,56.24
2023-04-08T22:17:37.582Z,56.66
2023-04-08T22:20:06.321Z,56.13
2023-04-08T22:22:34.450Z,56.07
2023-04-08T22:25:02.365Z,56.02
2023-04-08T22:27:30.339Z,55.75
2023-04-08T22:29:59.597Z,55.80
2023-04-08T22:32:27.462Z,55.47
2023-04-08T22:34:55.625Z,55.84
2023-04-08T22:37:23.411Z,55.64
2023-04-08T22:39:51.151Z,55.79
2023-04-08T22:42:18.900Z,55.38
2023-04-08T22:44:46.814Z,55.75
2023-04-08T22:47:16.081Z,55.92
2023-04-08T22:49:43.944Z,56.29
2023-04-08T22:52:11.828Z,55.89
2023-04-08T22:54:39.644Z,55.87
2023-04-08T22:57:07.547Z,56.25
2023-04-08T22:59:35.776Z,56.61
2023-04-08T23:02:03.689Z,55.96
2023-04-08T23:04:32.883Z,56.28
2023-04-08T23:07:00.781Z,56.43
2023-04-08T23:09:28.646Z,56.66
2023-04-08T23:11:57.403Z,56.95
2023-04-08T23:14:25.309Z,56.12
2023-04-08T23:16:53.168Z,56.86
2023-04-08T23:19:21.111Z,56.58
2023-04-08T23:21:50.377Z,56.78
2023-04-08T23:24:18.137Z,57.09
2023-04-08T23:26:46.305Z,56.97
2023-04-08T23:29:14.045Z,57.35
2023-04-08T23:31:41.866Z,56.80
2023-04-08T23:34:09.737Z,56.84
2023-04-08T23:36:37.619Z,56.70
2023-04-08T23:39:06.948Z,57.07
2023-04-08T23:41:34.863Z,56.81
2023-04-08T23:44:02.677Z,57.44
2023-04-08T23:46:30.646Z,57.06
2023-04-08T23:48:58.394Z,56.78
2023-04-08T23:51:26.652Z,57.11
2023-04-08T23:53:54.508Z,56.86
2023-04-08T23:56:23.861Z,57.20
2023-04-08T23:58:51.956Z,56.58
